Time;durP1;ratioP1;P1;durP2;ratioP2;P2;SDS_P1;SDS_P2;PMS_P1;PMS_P2;Temp;Humidity;BMP_temperature;BMP_pressure;BME280_temperature;BME280_humidity;BME280_pressure;Samples;Min_cycle;Max_cycle;Signal;HPM_P1;HPM_P2
2023/05/06 00:01:14;;;;;;;13.07;11.77;;;;;;;;;;4995825;28;20408;-87
2023/05/06 00:03:40;;;;;;;14.18;12.65;;;;;;;;;;4995775;28;20442;-87
2023/05/06 00:06:07;;;;;;;13.90;12.40;;;;;;;;;;5012337;28;20396;-87
2023/05/06 00:08:33;;;;;;;15.50;13.98;;;;;;;;;;4995826;28;20415;-87
2023/05/06 00:10:59;;;;;;;14.60;11.87;;;;;;;;;;4996609;28;20213;-87
2023/05/06 00:13:25;;;;;;;13.03;11.53;;;;;;;;;;4998484;28;20193;-88
2023/05/06 00:15:51;;;;;;;15.17;11.97;;;;;;;;;;5000165;28;20217;-88
2023/05/06 00:18:17;;;;;;;13.93;12.52;;;;;;;;;;4999820;28;20421;-88
2023/05/06 00:20:43;;;;;;;15.48;12.02;;;;;;;;;;5000151;28;20498;-88
2023/05/06 00:23:09;;;;;;;15.33;13.70;;;;;;;;;;4999606;28;20435;-87
2023/05/06 00:25:36;;;;;;;15.10;13.50;;;;;;;;;;5033657;28;20412;-87
2023/05/06 00:28:02;;;;;;;15.32;13.75;;;;;;;;;;5019265;28;20413;-86
2023/05/06 00:30:28;;;;;;;15.45;13.85;;;;;;;;;;5016781;28;20413;-88
2023/05/06 00:32:54;;;;;;;15.57;13.97;;;;;;;;;;5023895;28;20409;-87
2023/05/06 00:35:20;;;;;;;16.67;14.88;;;;;;;;;;5034291;28;20429;-87
2023/05/06 00:37:50;;;;;;;16.45;14.23;;;;;;;;;;5003089;28;20439;-88
2023/05/06 00:40:16;;;;;;;16.43;14.77;;;;;;;;;;5035103;28;20574;-87
2023/05/06 00:42:42;;;;;;;16.85;15.20;;;;;;;;;;5034802;28;20481;-87
2023/05/06 00:45:09;;;;;;;15.53;13.93;;;;;;;;;;5019389;28;20503;-87
2023/05/06 00:47:35;;;;;;;13.97;12.00;;;;;;;;;;5019463;28;20177;-87
2023/05/06 00:50:01;;;;;;;16.00;14.40;;;;;;;;;;5035086;28;20416;-87
2023/05/06 00:52:27;;;;;;;16.83;15.13;;;;;;;;;;5014218;28;20421;-87
2023/05/06 00:54:53;;;;;;;17.17;15.38;;;;;;;;;;5018561;28;20436;-87
2023/05/06 00:57:19;;;;;;;16.35;14.65;;;;;;;;;;5034645;28;20398;-87
2023/05/06 00:59:45;;;;;;;17.20;15.23;;;;;;;;;;5018269;28;20435;-86
2023/05/06 01:02:11;;;;;;;16.00;14.30;;;;;;;;;;5018424;28;20477;-87
2023/05/06 01:04:37;;;;;;;15.97;14.47;;;;;;;;;;5018454;28;20497;-87
2023/05/06 01:07:09;;;;;;;17.77;15.88;;;;;;;;;;5018276;28;20414;-87
2023/05/06 01:09:44;;;;;;;16.25;14.68;;;;;;;;;;5030181;28;20412;-86
2023/05/06 01:12:22;;;;;;;17.27;15.57;;;;;;;;;;5031189;28;20498;-86
2023/05/06 01:14:54;;;;;;;19.17;17.33;;;;;;;;;;5023912;28;20488;-87
2023/05/06 01:17:26;;;;;;;17.58;15.88;;;;;;;;;;5034476;28;20413;-87
2023/05/06 01:19:56;;;;;;;18.50;16.70;;;;;;;;;;5034218;28;20394;-86
2023/05/06 01:22:22;;;;;;;20.02;18.13;;;;;;;;;;5034217;28;20405;-87
2023/05/06 01:24:48;;;;;;;19.80;18.00;;;;;;;;;;5033369;28;20410;-87
2023/05/06 01:27:17;;;;;;;19.97;18.07;;;;;;;;;;5006470;28;20432;-88
2023/05/06 01:29:44;;;;;;;17.20;15.40;;;;;;;;;;5015526;28;20254;-87
2023/05/06 01:32:16;;;;;;;16.83;15.10;;;;;;;;;;5015268;28;20193;-87
2023/05/06 01:34:59;;;;;;;21.75;19.45;;;;;;;;;;5014366;28;20411;-87
2023/05/06 01:37:30;;;;;;;19.60;17.70;;;;;;;;;;5014893;28;20486;-87
2023/05/06 01:39:58;;;;;;;20.48;18.48;;;;;;;;;;5017617;28;20421;-87
2023/05/06 01:42:25;;;;;;;19.88;17.90;;;;;;;;;;5028695;28;20420;-87
2023/05/06 01:44:52;;;;;;;22.05;19.90;;;;;;;;;;5037081;28;20446;-87
2023/05/06 01:47:18;;;;;;;23.55;21.13;;;;;;;;;;5037230;28;20415;-87
2023/05/06 01:49:44;;;;;;;24.02;21.52;;;;;;;;;;5037364;28;20411;-87
2023/05/06 01:52:11;;;;;;;20.30;18.30;;;;;;;;;;5020150;28;20447;-87
2023/05/06 01:54:37;;;;;;;23.92;21.60;;;;;;;;;;5037077;28;20408;-87
2023/05/06 01:57:03;;;;;;;24.38;21.98;;;;;;;;;;5036612;28;20436;-88
2023/05/06 01:59:29;;;;;;;25.67;23.13;;;;;;;;;;5012301;28;20437;-87
2023/05/06 02:01:55;;;;;;;28.37;25.53;;;;;;;;;;5032457;28;20418;-87
2023/05/06 02:04:21;;;;;;;28.48;25.50;;;;;;;;;;5020215;28;20412;-87
2023/05/06 02:06:47;;;;;;;30.58;27.35;;;;;;;;;;5020193;28;20455;-88
2023/05/06 02:09:13;;;;;;;30.02;26.80;;;;;;;;;;5036485;28;20436;-87
2023/05/06 02:11:39;;;;;;;31.90;28.42;;;;;;;;;;5036614;28;20450;-87
2023/05/06 02:14:05;;;;;;;32.45;28.95;;;;;;;;;;5007814;28;20441;-87
2023/05/06 02:16:31;;;;;;;33.72;30.02;;;;;;;;;;5021626;28;20483;-88
2023/05/06 02:18:57;;;;;;;30.70;27.40;;;;;;;;;;5021197;28;20408;-87
2023/05/06 02:21:23;;;;;;;31.03;27.77;;;;;;;;;;5036736;28;20412;-88
2023/05/06 02:23:49;;;;;;;24.98;22.35;;;;;;;;;;5037185;28;20419;-87
2023/05/06 02:26:15;;;;;;;23.53;21.10;;;;;;;;;;5037204;28;20179;-87
2023/05/06 02:28:41;;;;;;;22.23;19.73;;;;;;;;;;5021037;28;20192;-87
2023/05/06 02:31:07;;;;;;;23.77;21.20;;;;;;;;;;5037133;28;20175;-87
2023/05/06 02:33:33;;;;;;;22.40;19.97;;;;;;;;;;5036728;28;20196;-87
2023/05/06 02:35:59;;;;;;;22.30;19.80;;;;;;;;;;5020154;28;20219;-86
2023/05/06 02:38:25;;;;;;;20.60;18.60;;;;;;;;;;5020579;28;20208;-87
2023/05/06 02:40:51;;;;;;;19.50;17.40;;;;;;;;;;5004611;28;20271;-87
2023/05/06 02:43:18;;;;;;;19.73;17.73;;;;;;;;;;5020545;28;20176;-86
2023/05/06 02:45:44;;;;;;;20.77;18.67;;;;;;;;;;5016967;28;20287;-88
2023/05/06 02:48:10;;;;;;;21.90;19.50;;;;;;;;;;5032069;28;20239;-87
2023/05/06 02:50:36;;;;;;;19.60;17.67;;;;;;;;;;5036935;28;20195;-87
2023/05/06 02:53:02;;;;;;;23.00;20.10;;;;;;;;;;5036947;28;20209;-87
2023/05/06 02:55:28;;;;;;;35.65;28.52;;;;;;;;;;5016112;28;20438;-87
2023/05/06 02:57:54;;;;;;;70.07;35.77;;;;;;;;;;5019167;28;20412;-87
2023/05/06 03:00:20;;;;;;;46.00;26.83;;;;;;;;;;5036343;28;20426;-87
2023/05/06 03:02:46;;;;;;;68.10;27.53;;;;;;;;;;5036441;28;20172;-87
2023/05/06 03:05:12;;;;;;;235.07;30.93;;;;;;;;;;5019594;28;20180;-87
2023/05/06 03:07:38;;;;;;;134.60;27.23;;;;;;;;;;5036234;28;20268;-81
2023/05/06 03:10:04;;;;;;;133.15;27.42;;;;;;;;;;5015157;28;20430;-80
2023/05/06 03:12:30;;;;;;;147.95;38.25;;;;;;;;;;5035564;28;20403;-80
2023/05/06 03:14:56;;;;;;;138.27;30.33;;;;;;;;;;5020070;28;20180;-80
2023/05/06 03:17:22;;;;;;;85.03;35.13;;;;;;;;;;5035444;28;20491;-81
2023/05/06 03:19:49;;;;;;;68.03;26.40;;;;;;;;;;5020229;28;20339;-81
2023/05/06 03:22:15;;;;;;;182.23;30.30;;;;;;;;;;5036323;28;20206;-81
2023/05/06 03:24:41;;;;;;;84.40;26.50;;;;;;;;;;5036245;28;20220;-81
2023/05/06 03:27:07;;;;;;;97.27;30.70;;;;;;;;;;5036130;28;20257;-81
2023/05/06 03:29:35;;;;;;;111.87;30.07;;;;;;;;;;5035999;28;20230;-81
2023/05/06 03:32:02;;;;;;;101.13;27.90;;;;;;;;;;5036249;28;20180;-81
2023/05/06 03:34:29;;;;;;;92.17;28.60;;;;;;;;;;5036354;28;20266;-81
2023/05/06 03:36:56;;;;;;;115.63;27.53;;;;;;;;;;5019834;28;20222;-81
2023/05/06 03:39:22;;;;;;;49.70;24.97;;;;;;;;;;5019784;28;20236;-81
2023/05/06 03:41:48;;;;;;;100.90;26.10;;;;;;;;;;5009754;28;20180;-81
2023/05/06 03:44:14;;;;;;;146.40;27.33;;;;;;;;;;5020632;28;20180;-81
2023/05/06 03:46:40;;;;;;;110.70;27.17;;;;;;;;;;5036018;28;20183;-81
2023/05/06 03:49:07;;;;;;;149.20;26.10;;;;;;;;;;5002696;28;20180;-81
2023/05/06 03:51:34;;;;;;;133.53;27.93;;;;;;;;;;5016482;28;20184;-81
2023/05/06 03:54:00;;;;;;;183.17;30.37;;;;;;;;;;5016398;28;20185;-81
2023/05/06 03:56:26;;;;;;;170.77;28.20;;;;;;;;;;5016149;28;20212;-80
2023/05/06 03:58:53;;;;;;;125.47;28.00;;;;;;;;;;5016032;28;20250;-81
2023/05/06 04:01:20;;;;;;;158.70;29.73;;;;;;;;;;5032781;28;20179;-81
2023/05/06 04:03:46;;;;;;;114.30;27.13;;;;;;;;;;5036035;28;20220;-81
2023/05/06 04:06:12;;;;;;;153.50;33.65;;;;;;;;;;5018841;28;20416;-80
2023/05/06 04:08:38;;;;;;;167.68;39.05;;;;;;;;;;5018404;28;20418;-81
2023/05/06 04:11:05;;;;;;;119.53;31.00;;;;;;;;;;5035231;28;20176;-81
2023/05/06 04:13:31;;;;;;;98.20;28.83;;;;;;;;;;5034811;28;20208;-81
2023/05/06 04:15:57;;;;;;;87.73;26.80;;;;;;;;;;5015617;28;20207;-81
2023/05/06 04:18:23;;;;;;;92.93;33.63;;;;;;;;;;5016055;28;20501;-80
2023/05/06 04:20:49;;;;;;;126.85;35.67;;;;;;;;;;5016750;28;20436;-81
2023/05/06 04:23:16;;;;;;;127.43;36.50;;;;;;;;;;5034200;28;20444;-81
2023/05/06 04:25:47;;;;;;;109.03;30.27;;;;;;;;;;5034902;28;20182;-81
2023/05/06 04:28:15;;;;;;;179.30;31.95;;;;;;;;;;5034522;28;20422;-81
2023/05/06 04:30:41;;;;;;;206.83;26.07;;;;;;;;;;5018751;28;20192;-81
2023/05/06 04:33:07;;;;;;;143.90;24.70;;;;;;;;;;5019038;28;20222;-81
2023/05/06 04:35:34;;;;;;;173.63;25.47;;;;;;;;;;5018850;28;20208;-81
2023/05/06 04:38:01;;;;;;;80.07;30.88;;;;;;;;;;5034713;28;20408;-81
2023/05/06 04:40:27;;;;;;;72.53;25.30;;;;;;;;;;5018572;28;20216;-82
2023/05/06 04:42:53;;;;;;;165.90;25.43;;;;;;;;;;5018686;28;20180;-82
2023/05/06 04:45:19;;;;;;;150.10;24.20;;;;;;;;;;5035069;28;20188;-82
2023/05/06 04:47:46;;;;;;;155.77;23.97;;;;;;;;;;5018933;28;20174;-81
2023/05/06 04:50:12;;;;;;;186.73;26.07;;;;;;;;;;5035007;28;20187;-81
2023/05/06 04:52:38;;;;;;;135.47;25.80;;;;;;;;;;5018163;28;20181;-81
2023/05/06 04:55:04;;;;;;;128.57;24.27;;;;;;;;;;5035405;28;20247;-81
2023/05/06 04:57:30;;;;;;;141.47;22.40;;;;;;;;;;5019479;28;20180;-81
2023/05/06 04:59:57;;;;;;;115.63;22.63;;;;;;;;;;5036262;28;20168;-81
2023/05/06 05:02:23;;;;;;;139.10;24.07;;;;;;;;;;5022303;28;20183;-81
2023/05/06 05:04:49;;;;;;;73.27;23.17;;;;;;;;;;5039016;28;20180;-80
2023/05/06 05:07:15;;;;;;;86.13;22.80;;;;;;;;;;5022611;28;20187;-80
2023/05/06 05:09:41;;;;;;;68.22;27.45;;;;;;;;;;5037966;28;20417;-81
2023/05/06 05:12:07;;;;;;;76.85;28.30;;;;;;;;;;5016939;28;20440;-79
2023/05/06 05:14:33;;;;;;;100.18;29.08;;;;;;;;;;5036414;28;20485;-80
2023/05/06 05:16:59;;;;;;;99.33;29.17;;;;;;;;;;5037509;28;20519;-82
2023/05/06 05:19:25;;;;;;;60.85;29.20;;;;;;;;;;5014308;28;20416;-81
2023/05/06 05:21:51;;;;;;;57.05;27.80;;;;;;;;;;5017758;28;20457;-81
2023/05/06 05:24:17;;;;;;;71.93;27.25;;;;;;;;;;5030768;28;20493;-81
2023/05/06 05:26:43;;;;;;;49.28;25.55;;;;;;;;;;5020914;28;20416;-81
2023/05/06 05:29:10;;;;;;;26.52;24.02;;;;;;;;;;5020954;28;20459;-81
2023/05/06 05:31:36;;;;;;;53.53;26.80;;;;;;;;;;5020770;28;20431;-80
2023/05/06 05:34:02;;;;;;;38.00;25.40;;;;;;;;;;5020641;28;20408;-80
2023/05/06 05:36:28;;;;;;;175.63;29.23;;;;;;;;;;5019304;28;20586;-81
2023/05/06 05:38:54;;;;;;;80.25;28.42;;;;;;;;;;5019268;28;20436;-82
2023/05/06 05:41:24;;;;;;;33.47;25.52;;;;;;;;;;5036793;28;20416;-83
2023/05/06 05:43:50;;;;;;;28.42;25.80;;;;;;;;;;5020849;28;20493;-82
2023/05/06 05:46:16;;;;;;;35.87;24.87;;;;;;;;;;5019590;28;20420;-83
2023/05/06 05:48:42;;;;;;;39.85;25.63;;;;;;;;;;5020333;28;20424;-82
2023/05/06 05:51:10;;;;;;;113.17;29.07;;;;;;;;;;5020266;28;20411;-82
2023/05/06 05:53:36;;;;;;;145.00;31.15;;;;;;;;;;5036676;28;20450;-84
2023/05/06 05:56:02;;;;;;;62.22;29.85;;;;;;;;;;5036992;28;20446;-83
2023/05/06 05:58:28;;;;;;;84.82;31.88;;;;;;;;;;5016873;28;20410;-84
2023/05/06 06:00:54;;;;;;;103.60;34.27;;;;;;;;;;5017036;28;20406;-83
2023/05/06 06:03:23;;;;;;;86.97;34.80;;;;;;;;;;5013628;28;20408;-81
2023/05/06 06:05:51;;;;;;;60.83;27.53;;;;;;;;;;5020710;28;20221;-83
2023/05/06 06:08:19;;;;;;;81.13;26.97;;;;;;;;;;5006589;28;20181;-84
2023/05/06 06:10:46;;;;;;;96.47;28.37;;;;;;;;;;5029264;28;20184;-85
2023/05/06 06:13:12;;;;;;;44.83;26.23;;;;;;;;;;5021096;28;20187;-82
2023/05/06 06:15:38;;;;;;;18.37;16.70;;;;;;;;;;5037185;28;20463;-82
2023/05/06 06:18:07;;;;;;;72.67;25.53;;;;;;;;;;5037221;28;20184;-81
2023/05/06 06:20:33;;;;;;;61.93;26.40;;;;;;;;;;5037499;28;20172;-81
2023/05/06 06:23:00;;;;;;;33.40;28.63;;;;;;;;;;5036779;28;20458;-81
2023/05/06 06:25:26;;;;;;;30.50;27.88;;;;;;;;;;5036209;28;20514;-81
2023/05/06 06:27:52;;;;;;;28.07;25.17;;;;;;;;;;5037398;28;20206;-81
2023/05/06 06:30:18;;;;;;;29.10;25.80;;;;;;;;;;5037198;28;20179;-81
2023/05/06 06:32:48;;;;;;;29.33;26.23;;;;;;;;;;5020683;28;20184;-81
2023/05/06 06:35:15;;;;;;;28.57;25.77;;;;;;;;;;5036951;28;20184;-81
2023/05/06 06:37:41;;;;;;;30.47;27.30;;;;;;;;;;5037052;28;20178;-81
2023/05/06 06:40:07;;;;;;;27.57;24.80;;;;;;;;;;5020565;28;20327;-81
2023/05/06 06:42:33;;;;;;;27.43;24.73;;;;;;;;;;5020652;28;20184;-81
2023/05/06 06:44:59;;;;;;;27.33;24.60;;;;;;;;;;5037198;28;20180;-81
2023/05/06 06:47:25;;;;;;;28.77;26.15;;;;;;;;;;5020130;28;20408;-81
2023/05/06 06:49:51;;;;;;;29.48;26.88;;;;;;;;;;5035720;28;20400;-81
2023/05/06 06:52:17;;;;;;;28.88;26.38;;;;;;;;;;5035789;28;20406;-81
2023/05/06 06:54:43;;;;;;;28.73;26.15;;;;;;;;;;5019755;28;20407;-81
2023/05/06 06:57:09;;;;;;;28.27;25.73;;;;;;;;;;5019704;28;20509;-81
2023/05/06 06:59:35;;;;;;;30.75;27.95;;;;;;;;;;5035823;28;20591;-81
2023/05/06 07:02:02;;;;;;;28.63;26.13;;;;;;;;;;5019555;28;20493;-81
2023/05/06 07:04:30;;;;;;;29.33;26.77;;;;;;;;;;5019086;28;20411;-81
2023/05/06 07:06:57;;;;;;;29.77;27.08;;;;;;;;;;5035619;28;20419;-81
2023/05/06 07:09:23;;;;;;;26.98;24.67;;;;;;;;;;5019296;28;20408;-81
2023/05/06 07:11:49;;;;;;;28.35;25.83;;;;;;;;;;5019287;28;20407;-81
2023/05/06 07:14:15;;;;;;;29.02;26.35;;;;;;;;;;5019085;28;20422;-81
2023/05/06 07:16:41;;;;;;;30.90;28.02;;;;;;;;;;5035250;28;20431;-82
2023/05/06 07:19:07;;;;;;;29.73;27.13;;;;;;;;;;5018838;28;20416;-81
2023/05/06 07:21:33;;;;;;;31.60;28.67;;;;;;;;;;5019169;28;20388;-82
2023/05/06 07:23:59;;;;;;;32.70;29.50;;;;;;;;;;5034684;28;20414;-81
2023/05/06 07:26:26;;;;;;;33.65;30.35;;;;;;;;;;5035454;28;20408;-82
2023/05/06 07:28:52;;;;;;;33.38;30.17;;;;;;;;;;5035290;28;20408;-81
2023/05/06 07:31:19;;;;;;;32.67;29.48;;;;;;;;;;5035115;28;20404;-81
2023/05/06 07:33:48;;;;;;;32.30;29.20;;;;;;;;;;5019092;28;20415;-82
2023/05/06 07:36:15;;;;;;;30.13;27.43;;;;;;;;;;5034989;28;20427;-81
2023/05/06 07:38:41;;;;;;;30.20;27.35;;;;;;;;;;5018750;28;20439;-81
2023/05/06 07:41:07;;;;;;;28.88;26.17;;;;;;;;;;5035347;28;20407;-81
2023/05/06 07:43:33;;;;;;;29.38;26.58;;;;;;;;;;5018773;28;20411;-81
2023/05/06 07:46:01;;;;;;;27.73;25.03;;;;;;;;;;5035140;28;20450;-81
2023/05/06 07:48:28;;;;;;;25.50;23.25;;;;;;;;;;5018965;28;20412;-81
2023/05/06 07:50:54;;;;;;;25.77;23.47;;;;;;;;;;5035122;28;20495;-80
2023/05/06 07:53:20;;;;;;;26.35;24.05;;;;;;;;;;5034932;28;20408;-80
2023/05/06 07:55:46;;;;;;;25.92;23.63;;;;;;;;;;5018400;28;20867;-81
2023/05/06 07:58:12;;;;;;;26.67;24.27;;;;;;;;;;5018642;28;20408;-81
2023/05/06 08:00:39;;;;;;;24.07;21.73;;;;;;;;;;5035926;28;20179;-81
2023/05/06 08:03:05;;;;;;;24.48;22.27;;;;;;;;;;5035403;28;20414;-82
2023/05/06 08:05:31;;;;;;;24.73;22.35;;;;;;;;;;5034382;28;20431;-81
2023/05/06 08:07:57;;;;;;;24.77;22.38;;;;;;;;;;5018722;28;20409;-81
2023/05/06 08:10:23;;;;;;;24.42;22.15;;;;;;;;;;5035131;28;20403;-82
2023/05/06 08:12:49;;;;;;;23.53;21.43;;;;;;;;;;5027102;28;20503;-82
2023/05/06 08:15:16;;;;;;;22.70;20.47;;;;;;;;;;5019457;28;20195;-81
2023/05/06 08:17:42;;;;;;;22.35;20.25;;;;;;;;;;5035257;28;20418;-81
2023/05/06 08:20:08;;;;;;;22.33;20.33;;;;;;;;;;5018453;28;20444;-81
2023/05/06 08:22:34;;;;;;;22.70;20.48;;;;;;;;;;5018243;28;20408;-81
2023/05/06 08:25:00;;;;;;;21.97;20.07;;;;;;;;;;5034368;28;20408;-81
2023/05/06 08:27:27;;;;;;;22.55;20.33;;;;;;;;;;5034726;28;20400;-81
2023/05/06 08:29:53;;;;;;;22.17;20.17;;;;;;;;;;5018023;28;20435;-81
2023/05/06 08:32:19;;;;;;;21.80;19.83;;;;;;;;;;5018105;28;20412;-81
2023/05/06 08:34:45;;;;;;;21.88;19.88;;;;;;;;;;5036738;28;20418;-81
2023/05/06 08:37:11;;;;;;;20.85;19.05;;;;;;;;;;5038296;28;20432;-81
2023/05/06 08:39:37;;;;;;;21.50;19.50;;;;;;;;;;5022246;28;20518;-81
2023/05/06 08:42:04;;;;;;;19.20;17.20;;;;;;;;;;5039020;28;20226;-81
2023/05/06 08:44:30;;;;;;;19.37;17.53;;;;;;;;;;5021797;28;20179;-82
2023/05/06 08:46:56;;;;;;;21.07;17.97;;;;;;;;;;5038583;28;20215;-82
2023/05/06 08:49:22;;;;;;;20.30;18.25;;;;;;;;;;5022358;28;20446;-82
2023/05/06 08:51:51;;;;;;;19.43;17.53;;;;;;;;;;5038789;28;20186;-82
2023/05/06 08:54:17;;;;;;;21.00;18.85;;;;;;;;;;5038547;28;20430;-82
2023/05/06 08:56:52;;;;;;;21.65;18.55;;;;;;;;;;5039518;28;20431;-82
2023/05/06 08:59:19;;;;;;;21.15;19.13;;;;;;;;;;5038522;28;20419;-82
2023/05/06 09:01:45;;;;;;;20.10;18.13;;;;;;;;;;5039402;28;20418;-82
2023/05/06 09:04:12;;;;;;;20.88;18.63;;;;;;;;;;5022409;28;20430;-82
2023/05/06 09:06:38;;;;;;;20.60;18.17;;;;;;;;;;5017217;28;20204;-82
2023/05/06 09:09:04;;;;;;;20.67;18.58;;;;;;;;;;5018500;28;20444;-82
2023/05/06 09:11:30;;;;;;;19.70;17.73;;;;;;;;;;5018738;28;20420;-82
2023/05/06 09:14:23;;;;;;;19.23;17.05;;;;;;;;;;5018597;28;20413;-82
2023/05/06 09:16:50;;;;;;;19.48;17.48;;;;;;;;;;5021458;28;20519;-82
2023/05/06 09:19:16;;;;;;;19.87;17.97;;;;;;;;;;5035085;28;20421;-82
2023/05/06 09:21:43;;;;;;;18.87;16.87;;;;;;;;;;5035449;28;20183;-82
2023/05/06 09:24:10;;;;;;;17.03;15.43;;;;;;;;;;5037821;28;20188;-82
2023/05/06 09:26:37;;;;;;;18.55;16.60;;;;;;;;;;5037605;28;20433;-82
2023/05/06 09:29:04;;;;;;;17.57;15.17;;;;;;;;;;5038577;28;20230;-82
2023/05/06 09:31:30;;;;;;;16.77;13.50;;;;;;;;;;5038502;28;20176;-82
2023/05/06 09:33:57;;;;;;;14.98;12.60;;;;;;;;;;5037459;28;20414;-82
2023/05/06 09:36:25;;;;;;;13.43;12.05;;;;;;;;;;5038156;28;20428;-82
2023/05/06 09:38:52;;;;;;;13.25;12.05;;;;;;;;;;5037273;28;20443;-82
2023/05/06 09:41:24;;;;;;;13.38;12.02;;;;;;;;;;5036925;28;20435;-82
2023/05/06 09:43:51;;;;;;;13.55;12.25;;;;;;;;;;5037767;28;20419;-82
2023/05/06 09:46:18;;;;;;;12.50;11.35;;;;;;;;;;5037184;28;20412;-82
2023/05/06 09:48:46;;;;;;;12.00;10.80;;;;;;;;;;5021109;28;20491;-82
2023/05/06 09:51:12;;;;;;;13.65;12.35;;;;;;;;;;5036772;28;20412;-83
2023/05/06 09:53:39;;;;;;;11.23;9.60;;;;;;;;;;5037959;28;20175;-84
2023/05/06 09:56:07;;;;;;;13.70;12.23;;;;;;;;;;5036818;28;20428;-84
2023/05/06 09:58:36;;;;;;;13.23;11.82;;;;;;;;;;5037277;28;20423;-83
2023/05/06 10:01:03;;;;;;;14.55;13.02;;;;;;;;;;5036905;28;20490;-83
2023/05/06 10:03:30;;;;;;;13.80;12.40;;;;;;;;;;5037611;28;20176;-84
2023/05/06 10:05:59;;;;;;;12.75;11.43;;;;;;;;;;5037427;28;20427;-84
2023/05/06 10:08:25;;;;;;;12.27;11.07;;;;;;;;;;5036997;28;20449;-84
2023/05/06 10:10:52;;;;;;;10.98;8.95;;;;;;;;;;5036424;28;20458;-84
2023/05/06 10:13:25;;;;;;;10.25;7.75;;;;;;;;;;5037561;28;20180;-84
2023/05/06 10:15:52;;;;;;;9.88;8.05;;;;;;;;;;5036118;28;20435;-84
2023/05/06 10:18:21;;;;;;;8.82;6.90;;;;;;;;;;5037154;28;20176;-84
2023/05/06 10:20:48;;;;;;;8.40;7.25;;;;;;;;;;5036865;28;20408;-84
2023/05/06 10:23:19;;;;;;;7.60;6.90;;;;;;;;;;5036950;28;20192;-84
2023/05/06 10:25:46;;;;;;;8.25;7.15;;;;;;;;;;5035786;28;20415;-82
2023/05/06 10:28:13;;;;;;;7.40;6.17;;;;;;;;;;5035994;28;20459;-82
2023/05/06 10:30:39;;;;;;;8.17;6.87;;;;;;;;;;5036675;28;20412;-83
2023/05/06 10:33:10;;;;;;;8.47;7.20;;;;;;;;;;5036494;28;20404;-82
2023/05/06 10:35:46;;;;;;;7.63;6.38;;;;;;;;;;5036009;28;20436;-82
2023/05/06 10:38:21;;;;;;;7.18;6.47;;;;;;;;;;5036444;28;20422;-83
2023/05/06 10:40:48;;;;;;;7.85;7.05;;;;;;;;;;5036157;28;20443;-82
2023/05/06 10:43:24;;;;;;;7.70;6.20;;;;;;;;;;5036057;28;20400;-82
2023/05/06 10:46:09;;;;;;;7.30;6.60;;;;;;;;;;5036128;28;20413;-83
2023/05/06 10:48:36;;;;;;;7.93;7.10;;;;;;;;;;5035882;28;20417;-83
2023/05/06 10:51:18;;;;;;;8.52;7.63;;;;;;;;;;5038850;28;20191;-83
2023/05/06 10:54:01;;;;;;;9.40;7.18;;;;;;;;;;5036077;28;20450;-83
2023/05/06 10:56:30;;;;;;;6.82;6.13;;;;;;;;;;5035474;28;20423;-83
2023/05/06 10:59:00;;;;;;;7.10;5.75;;;;;;;;;;5035802;28;20408;-84
2023/05/06 11:01:27;;;;;;;7.22;6.53;;;;;;;;;;5035566;28;20466;-82
2023/05/06 11:03:56;;;;;;;8.40;7.60;;;;;;;;;;5034858;28;20413;-84
2023/05/06 11:06:40;;;;;;;8.02;6.53;;;;;;;;;;5036759;28;20267;-84
2023/05/06 11:09:15;;;;;;;8.35;7.43;;;;;;;;;;5036392;28;20184;-83
2023/05/06 11:12:00;;;;;;;8.10;7.30;;;;;;;;;;5036155;28;20415;-83
2023/05/06 11:14:34;;;;;;;7.75;6.97;;;;;;;;;;5036432;28;20176;-83
2023/05/06 11:17:03;;;;;;;7.93;6.97;;;;;;;;;;5036205;28;20227;-84
2023/05/06 11:19:30;;;;;;;6.75;6.10;;;;;;;;;;5020257;28;20289;-84
2023/05/06 11:21:57;;;;;;;7.15;6.28;;;;;;;;;;5036322;28;20415;-84
2023/05/06 11:24:28;;;;;;;7.38;6.35;;;;;;;;;;5035268;28;20400;-84
2023/05/06 11:26:58;;;;;;;6.30;5.10;;;;;;;;;;5053204;28;20489;-84
2023/05/06 11:29:25;;;;;;;6.47;5.05;;;;;;;;;;5035539;28;20534;-84
2023/05/06 11:31:52;;;;;;;6.65;5.40;;;;;;;;;;5035589;28;20400;-83
2023/05/06 11:34:26;;;;;;;8.27;6.20;;;;;;;;;;5019571;28;20415;-84
2023/05/06 11:36:57;;;;;;;6.27;5.63;;;;;;;;;;5035245;28;20420;-84
2023/05/06 11:39:23;;;;;;;6.78;6.18;;;;;;;;;;5035296;28;20543;-84
2023/05/06 11:41:49;;;;;;;7.45;6.28;;;;;;;;;;5019664;28;20176;-83
2023/05/06 11:44:25;;;;;;;7.10;6.03;;;;;;;;;;5036046;28;20175;-84
2023/05/06 11:46:52;;;;;;;7.05;6.13;;;;;;;;;;5035897;28;20420;-82
2023/05/06 11:49:18;;;;;;;6.10;5.38;;;;;;;;;;5035512;28;20447;-82
2023/05/06 11:51:44;;;;;;;6.65;5.47;;;;;;;;;;5035040;28;20462;-82
2023/05/06 11:54:10;;;;;;;7.97;6.18;;;;;;;;;;5035539;28;20423;-82
2023/05/06 11:56:47;;;;;;;6.50;5.90;;;;;;;;;;5035055;28;20499;-83
2023/05/06 11:59:13;;;;;;;7.45;6.18;;;;;;;;;;5035485;28;20415;-84
2023/05/06 12:01:43;;;;;;;8.93;5.47;;;;;;;;;;5034927;28;20419;-82
2023/05/06 12:04:10;;;;;;;6.32;4.10;;;;;;;;;;5009034;28;20430;-83
2023/05/06 12:06:38;;;;;;;7.05;5.90;;;;;;;;;;5016415;28;20422;-83
2023/05/06 12:09:05;;;;;;;7.28;6.20;;;;;;;;;;5016688;28;20452;-83
2023/05/06 12:11:33;;;;;;;6.03;5.43;;;;;;;;;;5019396;28;20513;-82
2023/05/06 12:14:03;;;;;;;6.57;5.57;;;;;;;;;;5031327;28;20423;-86
2023/05/06 12:16:29;;;;;;;6.40;4.65;;;;;;;;;;5038713;28;20435;-83
2023/05/06 12:18:55;;;;;;;7.40;5.10;;;;;;;;;;5022786;28;20455;-82
2023/05/06 12:21:25;;;;;;;6.90;6.03;;;;;;;;;;5039561;28;20412;-84
2023/05/06 12:24:00;;;;;;;7.25;5.63;;;;;;;;;;5038858;28;20419;-85
2023/05/06 12:26:27;;;;;;;5.83;5.20;;;;;;;;;;5039189;28;20427;-84
2023/05/06 12:29:09;;;;;;;6.00;5.40;;;;;;;;;;5039295;28;20408;-84
2023/05/06 12:31:36;;;;;;;6.33;5.13;;;;;;;;;;5038794;28;20412;-84
2023/05/06 12:34:03;;;;;;;6.57;5.47;;;;;;;;;;5039438;28;20422;-84
2023/05/06 12:36:31;;;;;;;6.55;5.65;;;;;;;;;;5038724;28;20435;-85
2023/05/06 12:39:00;;;;;;;5.72;5.03;;;;;;;;;;5038225;28;20435;-85
2023/05/06 12:41:37;;;;;;;5.55;3.92;;;;;;;;;;5038862;28;20493;-82
2023/05/06 12:44:03;;;;;;;5.17;4.27;;;;;;;;;;5038589;28;20408;-82
2023/05/06 12:46:29;;;;;;;5.30;4.55;;;;;;;;;;5038857;28;20415;-83
2023/05/06 12:49:03;;;;;;;6.72;4.32;;;;;;;;;;5038964;28;20450;-83
2023/05/06 12:51:32;;;;;;;7.43;5.00;;;;;;;;;;5039095;28;20408;-83
2023/05/06 12:53:58;;;;;;;7.25;4.63;;;;;;;;;;5039224;28;20183;-83
2023/05/06 12:56:24;;;;;;;8.57;5.70;;;;;;;;;;5038812;28;20427;-83
2023/05/06 12:59:16;;;;;;;6.95;5.40;;;;;;;;;;5041272;28;20412;-83
2023/05/06 13:01:43;;;;;;;4.63;3.50;;;;;;;;;;5033759;28;20420;-83
2023/05/06 13:04:09;;;;;;;6.35;3.30;;;;;;;;;;5038077;28;20428;-83
2023/05/06 13:06:37;;;;;;;5.28;3.38;;;;;;;;;;5038097;28;20404;-83
2023/05/06 13:09:04;;;;;;;6.47;4.00;;;;;;;;;;5037555;28;20450;-84
2023/05/06 13:11:30;;;;;;;5.10;3.80;;;;;;;;;;5038865;28;20419;-85
2023/05/06 13:13:56;;;;;;;4.33;3.70;;;;;;;;;;5037256;28;20469;-85
2023/05/06 13:16:22;;;;;;;5.18;4.15;;;;;;;;;;5038750;28;20435;-83
2023/05/06 13:18:48;;;;;;;4.82;4.07;;;;;;;;;;5038284;28;20412;-84
2023/05/06 13:21:14;;;;;;;5.17;4.20;;;;;;;;;;5036578;28;20483;-83
2023/05/06 13:23:45;;;;;;;7.30;5.40;;;;;;;;;;5037645;28;20502;-84
2023/05/06 13:26:12;;;;;;;7.30;5.07;;;;;;;;;;5037610;28;20584;-85
2023/05/06 13:28:38;;;;;;;6.38;5.10;;;;;;;;;;5037592;28;20641;-84
2023/05/06 13:31:04;;;;;;;5.60;4.60;;;;;;;;;;5037632;28;20427;-84
2023/05/06 13:33:34;;;;;;;6.07;4.95;;;;;;;;;;5037663;28;20411;-84
2023/05/06 13:36:00;;;;;;;6.87;4.57;;;;;;;;;;5037295;28;20436;-84
2023/05/06 13:38:26;;;;;;;6.38;4.80;;;;;;;;;;5037894;28;20423;-84
2023/05/06 13:40:53;;;;;;;6.75;4.45;;;;;;;;;;5037443;28;20408;-84
2023/05/06 13:43:19;;;;;;;9.40;5.20;;;;;;;;;;5037652;28;20479;-84
2023/05/06 13:45:45;;;;;;;7.45;4.90;;;;;;;;;;5037153;28;20424;-84
2023/05/06 13:48:14;;;;;;;6.10;4.93;;;;;;;;;;5037512;28;20407;-84
2023/05/06 13:50:41;;;;;;;5.72;4.60;;;;;;;;;;5037537;28;20415;-84
2023/05/06 13:53:13;;;;;;;5.35;4.43;;;;;;;;;;5037348;28;20499;-83
2023/05/06 13:55:39;;;;;;;5.57;4.43;;;;;;;;;;5036494;28;20412;-83
2023/05/06 13:58:05;;;;;;;7.05;4.13;;;;;;;;;;5037301;28;20183;-84
2023/05/06 14:00:32;;;;;;;5.95;4.63;;;;;;;;;;5037179;28;20404;-84
2023/05/06 14:02:58;;;;;;;7.15;4.40;;;;;;;;;;5037051;28;20455;-83
2023/05/06 14:05:24;;;;;;;4.88;3.95;;;;;;;;;;5036347;28;20605;-83
2023/05/06 14:07:50;;;;;;;6.30;4.05;;;;;;;;;;5036903;28;20411;-83
2023/05/06 14:10:16;;;;;;;6.43;4.00;;;;;;;;;;5021527;28;20404;-82
2023/05/06 14:12:42;;;;;;;5.30;4.05;;;;;;;;;;5040966;28;20406;-82
2023/05/06 14:15:09;;;;;;;5.97;4.60;;;;;;;;;;5036616;28;20404;-83
2023/05/06 14:17:35;;;;;;;5.50;4.00;;;;;;;;;;5036545;28;20428;-83
2023/05/06 14:20:02;;;;;;;5.80;4.80;;;;;;;;;;5036614;28;20466;-83
2023/05/06 14:22:32;;;;;;;6.65;4.30;;;;;;;;;;5036654;28;20447;-84
2023/05/06 14:24:58;;;;;;;7.13;4.50;;;;;;;;;;5036794;28;20460;-84